createdAt,value
2023-05-21T00:01:31.046Z,16.54
2023-05-21T00:04:34.273Z,16.54
2023-05-21T00:07:38.670Z,16.53
2023-05-21T00:10:41.367Z,16.55
2023-05-21T00:13:44.153Z,16.40
2023-05-21T00:16:47.189Z,16.52
2023-05-21T00:19:50.435Z,16.50
2023-05-21T00:22:55.714Z,16.50
2023-05-21T00:25:58.483Z,16.49
2023-05-21T00:29:01.294Z,16.48
2023-05-21T00:32:04.462Z,16.48
2023-05-21T00:35:09.007Z,16.49
2023-05-21T00:38:14.346Z,16.46
2023-05-21T00:41:17.441Z,16.44
2023-05-21T00:44:20.658Z,16.42
2023-05-21T00:47:23.916Z,16.42
2023-05-21T00:50:27.831Z,16.42
2023-05-21T00:53:34.964Z,16.39
2023-05-21T00:56:38.302Z,16.40
2023-05-21T00:59:41.151Z,16.39
2023-05-21T01:02:45.339Z,16.38
2023-05-21T01:05:48.857Z,16.40
2023-05-21T01:08:53.383Z,16.38
2023-05-21T01:11:57.481Z,16.36
2023-05-21T01:15:02.153Z,16.37
2023-05-21T01:18:06.008Z,16.33
2023-05-21T01:21:09.788Z,16.33
2023-05-21T01:24:13.935Z,16.31
2023-05-21T01:27:16.829Z,16.30
2023-05-21T01:30:21.755Z,16.28
2023-05-21T01:33:28.950Z,16.26
2023-05-21T01:36:40.867Z,16.26
2023-05-21T01:39:48.623Z,16.23
2023-05-21T01:42:51.667Z,16.22
2023-05-21T01:45:56.811Z,16.16
2023-05-21T01:48:59.903Z,16.21
2023-05-21T01:52:04.397Z,16.17
2023-05-21T01:55:09.179Z,16.06
2023-05-21T01:58:11.951Z,16.16
2023-05-21T02:01:14.938Z,16.14
2023-05-21T02:04:17.685Z,16.10
2023-05-21T02:07:20.442Z,15.97
2023-05-21T02:10:27.995Z,16.06
2023-05-21T02:13:34.488Z,16.03
2023-05-21T02:16:38.438Z,16.00
2023-05-21T02:19:41.857Z,15.98
2023-05-21T02:22:46.270Z,15.95
2023-05-21T02:25:50.421Z,15.91
2023-05-21T02:28:54.089Z,15.93
2023-05-21T02:31:56.858Z,15.92
2023-05-21T02:34:59.818Z,15.92
2023-05-21T02:38:03.157Z,15.92
2023-05-21T02:41:07.586Z,15.90
2023-05-21T02:44:10.317Z,15.90
2023-05-21T02:47:13.054Z,15.89
2023-05-21T02:50:16.048Z,15.87
2023-05-21T02:53:18.790Z,15.86
2023-05-21T02:56:23.324Z,15.85
2023-05-21T02:59:26.095Z,15.83
2023-05-21T03:02:29.343Z,15.82
2023-05-21T03:05:32.188Z,15.80
2023-05-21T03:08:35.023Z,15.80
2023-05-21T03:11:39.110Z,15.78
2023-05-21T03:14:44.204Z,15.75
2023-05-21T03:17:48.316Z,15.71
2023-05-21T03:20:51.473Z,15.69
2023-05-21T03:23:58.621Z,15.65
2023-05-21T03:27:02.863Z,15.63
2023-05-21T03:30:06.955Z,15.58
2023-05-21T03:33:11.182Z,15.52
2023-05-21T03:36:14.169Z,15.51
2023-05-21T03:39:17.138Z,15.47
2023-05-21T03:42:21.244Z,15.42
2023-05-21T03:45:23.957Z,15.40
2023-05-21T03:48:26.774Z,15.37
2023-05-21T03:51:30.813Z,15.37
2023-05-21T03:54:33.547Z,15.37
2023-05-21T03:57:37.769Z,15.32
2023-05-21T04:00:40.631Z,15.38
2023-05-21T04:03:43.697Z,15.39
2023-05-21T04:06:46.525Z,15.43
2023-05-21T04:09:49.376Z,15.40
2023-05-21T04:12:53.583Z,15.48
2023-05-21T04:15:56.440Z,15.53
2023-05-21T04:18:59.623Z,15.65
2023-05-21T04:22:03.168Z,15.73
2023-05-21T04:25:06.363Z,15.81
2023-05-21T04:28:11.060Z,15.91
2023-05-21T04:31:14.044Z,16.00
2023-05-21T04:34:18.888Z,16.02
2023-05-21T04:37:24.639Z,16.15
2023-05-21T04:40:27.366Z,16.24
2023-05-21T04:43:32.095Z,16.33
2023-05-21T04:46:35.847Z,16.41
2023-05-21T04:49:38.917Z,16.46
2023-05-21T04:52:41.761Z,16.51
2023-05-21T04:55:44.515Z,16.58
2023-05-21T04:58:49.332Z,16.66
2023-05-21T05:01:52.692Z,16.76
2023-05-21T05:04:55.617Z,16.82
2023-05-21T05:07:58.405Z,16.89
2023-05-21T05:11:01.250Z,16.92
2023-05-21T05:14:05.331Z,16.97
2023-05-21T05:17:09.920Z,16.99
2023-05-21T05:20:12.993Z,17.04
2023-05-21T05:23:16.092Z,17.09
2023-05-21T05:26:18.942Z,17.12
2023-05-21T05:29:23.065Z,17.20
2023-05-21T05:32:25.841Z,17.25
2023-05-21T05:35:28.578Z,17.29
2023-05-21T05:38:31.374Z,17.34
2023-05-21T05:41:34.100Z,17.41
2023-05-21T05:44:38.246Z,17.44
2023-05-21T05:47:41.008Z,17.58
2023-05-21T05:50:43.938Z,17.63
2023-05-21T05:53:46.671Z,17.70
2023-05-21T05:56:49.426Z,17.77
2023-05-21T05:59:53.506Z,17.85
2023-05-21T06:02:56.361Z,17.97
2023-05-21T06:05:59.220Z,18.10
2023-05-21T06:09:02.042Z,18.44
2023-05-21T06:12:05.740Z,18.82
2023-05-21T06:15:11.139Z,18.99
2023-05-21T06:18:13.914Z,19.22
2023-05-21T06:21:16.646Z,19.71
2023-05-21T06:24:19.537Z,20.05
2023-05-21T06:27:22.401Z,20.33
2023-05-21T06:30:26.560Z,20.78
2023-05-21T06:33:29.487Z,21.43
2023-05-21T06:36:32.457Z,22.05
2023-05-21T06:39:35.339Z,22.56
2023-05-21T06:42:38.142Z,22.90
2023-05-21T06:45:42.432Z,22.90
2023-05-21T06:48:45.922Z,22.61
2023-05-21T06:51:48.802Z,22.61
2023-05-21T06:54:51.581Z,22.66
2023-05-21T06:57:54.431Z,22.71
2023-05-21T07:00:58.529Z,22.77
2023-05-21T07:04:02.368Z,22.84
2023-05-21T07:07:05.744Z,22.94
2023-05-21T07:10:09.753Z,23.16
2023-05-21T07:13:12.690Z,23.23
2023-05-21T07:16:17.878Z,23.42
2023-05-21T07:19:21.233Z,23.57
2023-05-21T07:22:25.946Z,23.52
2023-05-21T07:25:30.251Z,23.52
2023-05-21T07:28:33.253Z,23.53
2023-05-21T07:31:37.837Z,23.68
2023-05-21T07:34:41.459Z,23.39
2023-05-21T07:37:44.339Z,23.38
2023-05-21T07:40:47.173Z,23.48
2023-05-21T07:43:50.406Z,23.49
2023-05-21T07:46:54.563Z,23.41
2023-05-21T07:49:58.780Z,23.41
2023-05-21T07:53:02.484Z,23.38
2023-05-21T07:56:05.609Z,23.46
2023-05-21T07:59:08.417Z,23.62
2023-05-21T08:02:12.695Z,23.69
2023-05-21T08:05:16.476Z,23.47
2023-05-21T08:08:20.139Z,23.23
2023-05-21T08:11:23.423Z,23.18
2023-05-21T08:14:26.298Z,23.29
2023-05-21T08:17:30.620Z,23.42
2023-05-21T08:20:34.362Z,23.37
2023-05-21T08:23:37.131Z,23.54
2023-05-21T08:26:39.868Z,23.72
2023-05-21T08:29:42.712Z,23.89
2023-05-21T08:32:47.046Z,24.07
2023-05-21T08:35:49.997Z,24.15
2023-05-21T08:38:52.906Z,24.28
2023-05-21T08:42:03.907Z,24.28
2023-05-21T08:45:07.764Z,24.43
2023-05-21T08:48:13.273Z,24.56
2023-05-21T08:51:17.043Z,24.73
2023-05-21T08:54:19.798Z,24.80
2023-05-21T08:57:26.293Z,24.73
2023-05-21T09:00:29.062Z,24.82
2023-05-21T09:03:33.337Z,24.83
2023-05-21T09:06:36.497Z,24.84
2023-05-21T09:09:47.244Z,24.97
2023-05-21T09:12:50.181Z,25.09
2023-05-21T09:15:52.919Z,25.18
2023-05-21T09:18:57.099Z,25.28
2023-05-21T09:22:03.840Z,25.34
2023-05-21T09:25:08.985Z,25.32
2023-05-21T09:28:16.607Z,25.37
2023-05-21T09:31:19.473Z,25.34
2023-05-21T09:34:26.371Z,25.34
2023-05-21T09:37:29.873Z,25.38
2023-05-21T09:40:32.666Z,25.41
2023-05-21T09:43:35.509Z,25.37
2023-05-21T09:46:42.517Z,25.08
2023-05-21T09:49:46.888Z,25.12
2023-05-21T09:52:52.921Z,25.23
2023-05-21T09:55:59.031Z,25.40
2023-05-21T09:59:04.696Z,25.45
2023-05-21T10:02:19.597Z,25.56
2023-05-21T10:05:27.485Z,25.69
2023-05-21T10:08:35.049Z,25.74
2023-05-21T10:11:38.298Z,25.89
2023-05-21T10:14:43.382Z,25.94
2023-05-21T10:17:47.419Z,26.16
2023-05-21T10:20:52.327Z,25.92
2023-05-21T10:23:57.464Z,25.84
2023-05-21T10:27:02.276Z,25.93
2023-05-21T10:30:06.938Z,26.11
2023-05-21T10:33:10.238Z,26.15
2023-05-21T10:36:17.587Z,26.22
2023-05-21T10:39:24.054Z,26.32
2023-05-21T10:42:48.914Z,26.35
2023-05-21T10:46:10.769Z,26.44
2023-05-21T10:49:39.736Z,26.63
2023-05-21T10:52:58.108Z,26.78
2023-05-21T10:56:12.904Z,26.88
2023-05-21T10:59:26.827Z,26.88
2023-05-21T11:02:31.082Z,26.84
2023-05-21T11:05:41.549Z,26.80
2023-05-21T11:08:48.830Z,26.78
2023-05-21T11:11:52.818Z,26.83
2023-05-21T11:14:58.414Z,26.93
2023-05-21T11:18:01.316Z,26.93
2023-05-21T11:21:07.038Z,26.95
2023-05-21T11:24:20.284Z,27.02
2023-05-21T11:27:34.187Z,27.16
2023-05-21T11:30:38.960Z,27.38
2023-05-21T11:33:43.730Z,27.60
2023-05-21T11:36:48.428Z,27.75
2023-05-21T11:39:52.756Z,27.92
2023-05-21T11:42:56.904Z,27.95
2023-05-21T11:46:00.759Z,28.04
2023-05-21T11:49:04.864Z,28.12
2023-05-21T11:52:09.558Z,28.13
2023-05-21T11:55:15.928Z,28.04
2023-05-21T11:58:19.980Z,28.18
2023-05-21T12:01:24.058Z,28.26
2023-05-21T12:04:30.844Z,28.35
2023-05-21T12:07:33.599Z,28.24
2023-05-21T12:10:39.617Z,28.37
2023-05-21T12:13:42.586Z,28.31
2023-05-21T12:16:45.614Z,28.38
2023-05-21T12:19:49.381Z,28.51
2023-05-21T12:22:52.166Z,28.63
2023-05-21T12:25:56.422Z,28.67
2023-05-21T12:28:59.691Z,28.69
2023-05-21T12:32:03.199Z,28.76
2023-05-21T12:35:06.894Z,28.77
2023-05-21T12:38:10.047Z,28.65
2023-05-21T12:41:14.339Z,28.58
2023-05-21T12:44:17.402Z,28.75
2023-05-21T12:47:20.706Z,28.99
2023-05-21T12:50:23.612Z,29.14
2023-05-21T12:53:27.046Z,29.27
2023-05-21T12:56:45.568Z,29.39
2023-05-21T12:59:50.785Z,29.39
2023-05-21T13:02:53.630Z,29.38
2023-05-21T13:05:59.765Z,29.31
2023-05-21T13:09:02.542Z,29.29
2023-05-21T13:12:07.801Z,29.36
2023-05-21T13:15:11.668Z,29.29
2023-05-21T13:18:16.057Z,29.30
2023-05-21T13:21:19.030Z,29.33
2023-05-21T13:24:22.271Z,29.33
2023-05-21T13:27:26.523Z,29.23
2023-05-21T13:30:29.869Z,29.14
2023-05-21T13:33:32.879Z,29.03
2023-05-21T13:36:36.437Z,29.01
2023-05-21T13:39:39.538Z,29.04
2023-05-21T13:42:44.385Z,28.92
2023-05-21T13:45:50.019Z,28.96
2023-05-21T13:48:52.853Z,29.00
2023-05-21T13:51:55.776Z,29.06
2023-05-21T13:54:58.817Z,29.07
2023-05-21T13:58:03.012Z,29.16
2023-05-21T14:01:07.295Z,29.22
2023-05-21T14:04:10.400Z,29.28
2023-05-21T14:07:13.304Z,29.42
2023-05-21T14:10:16.221Z,29.36
2023-05-21T14:13:21.076Z,29.31
2023-05-21T14:16:25.236Z,29.27
2023-05-21T14:19:30.517Z,29.22
2023-05-21T14:22:33.350Z,29.19
2023-05-21T14:25:36.487Z,29.20
2023-05-21T14:28:40.798Z,29.13
2023-05-21T14:31:44.166Z,29.16
2023-05-21T14:34:47.124Z,29.25
2023-05-21T14:37:50.530Z,29.31
2023-05-21T14:40:53.309Z,29.29
2023-05-21T14:43:58.125Z,29.17
2023-05-21T14:47:00.897Z,29.13
2023-05-21T14:50:04.218Z,29.16
2023-05-21T14:53:07.096Z,29.26
2023-05-21T14:56:10.110Z,29.26
2023-05-21T14:59:14.378Z,29.29
2023-05-21T15:02:17.870Z,29.27
2023-05-21T15:05:21.151Z,29.26
2023-05-21T15:08:23.902Z,29.37
2023-05-21T15:11:26.684Z,29.26
2023-05-21T15:14:30.918Z,29.23
2023-05-21T15:17:34.141Z,29.20
2023-05-21T15:20:36.964Z,29.29
2023-05-21T15:23:39.756Z,29.07
2023-05-21T15:26:42.612Z,28.96
2023-05-21T15:29:46.816Z,28.95
2023-05-21T15:32:49.733Z,28.98
2023-05-21T15:35:52.676Z,28.96
2023-05-21T15:38:55.661Z,28.79
2023-05-21T15:41:58.409Z,28.61
2023-05-21T15:45:02.640Z,28.41
2023-05-21T15:48:05.914Z,28.28
2023-05-21T15:51:08.859Z,28.06
2023-05-21T15:54:11.641Z,27.91
2023-05-21T15:57:14.460Z,27.74
2023-05-21T16:00:18.798Z,27.64
2023-05-21T16:03:22.266Z,27.57
2023-05-21T16:06:25.837Z,27.48
2023-05-21T16:09:28.793Z,27.42
2023-05-21T16:12:31.794Z,27.35
2023-05-21T16:15:36.264Z,27.29
2023-05-21T16:18:39.200Z,27.15
2023-05-21T16:21:42.643Z,27.08
2023-05-21T16:24:45.404Z,26.88
2023-05-21T16:27:48.658Z,26.85
2023-05-21T16:30:52.949Z,26.82
2023-05-21T16:33:55.889Z,26.81
2023-05-21T16:36:59.131Z,26.84
2023-05-21T16:40:02.448Z,26.75
2023-05-21T16:43:05.375Z,26.71
2023-05-21T16:46:09.613Z,26.69
2023-05-21T16:49:12.326Z,26.69
2023-05-21T16:52:15.074Z,26.62
2023-05-21T16:55:18.252Z,26.52
2023-05-21T16:58:21.184Z,26.37
2023-05-21T17:01:25.659Z,26.29
2023-05-21T17:04:28.511Z,26.20
2023-05-21T17:07:31.720Z,26.28
2023-05-21T17:10:34.857Z,26.30
2023-05-21T17:13:37.633Z,26.30
2023-05-21T17:16:42.932Z,26.24
2023-05-21T17:19:45.746Z,26.22
2023-05-21T17:22:48.860Z,26.22
2023-05-21T17:25:51.988Z,26.04
2023-05-21T17:28:54.866Z,25.91
2023-05-21T17:31:59.165Z,25.65
2023-05-21T17:35:02.468Z,25.59
2023-05-21T17:38:05.287Z,25.53
2023-05-21T17:41:08.213Z,25.47
2023-05-21T17:44:11.416Z,25.40
2023-05-21T17:47:15.603Z,25.36
2023-05-21T17:50:18.419Z,25.34
2023-05-21T17:53:21.222Z,25.28
2023-05-21T17:56:24.105Z,25.24
2023-05-21T17:59:26.880Z,25.12
2023-05-21T18:02:31.034Z,25.06
2023-05-21T18:05:33.859Z,25.01
2023-05-21T18:08:36.684Z,24.90
2023-05-21T18:11:40.302Z,24.82
2023-05-21T18:14:43.118Z,24.76
2023-05-21T18:17:48.414Z,24.69
2023-05-21T18:20:51.316Z,24.56
2023-05-21T18:23:54.146Z,24.43
2023-05-21T18:26:56.976Z,24.34
2023-05-21T18:30:03.320Z,24.22
2023-05-21T18:33:08.328Z,24.05
2023-05-21T18:36:11.598Z,23.88
2023-05-21T18:39:14.332Z,23.71
2023-05-21T18:42:17.323Z,23.51
2023-05-21T18:45:20.088Z,23.37
2023-05-21T18:48:24.228Z,23.23
2023-05-21T18:51:27.067Z,23.15
2023-05-21T18:54:29.855Z,23.03
2023-05-21T18:57:34.361Z,22.93
2023-05-21T19:00:39.426Z,22.80
2023-05-21T19:03:43.784Z,22.74
2023-05-21T19:06:47.115Z,22.54
2023-05-21T19:09:49.977Z,22.64
2023-05-21T19:12:52.768Z,22.48
2023-05-21T19:15:57.499Z,22.25
2023-05-21T19:19:02.023Z,22.12
2023-05-21T19:22:04.956Z,22.03
2023-05-21T19:25:08.388Z,21.98
2023-05-21T19:28:11.359Z,21.96
2023-05-21T19:31:14.185Z,21.93
2023-05-21T19:34:18.453Z,21.92
2023-05-21T19:37:21.438Z,21.87
2023-05-21T19:40:24.211Z,21.80
2023-05-21T19:43:28.009Z,21.70
2023-05-21T19:46:32.039Z,21.63
2023-05-21T19:49:36.124Z,21.55
2023-05-21T19:52:39.100Z,21.50
2023-05-21T19:55:41.937Z,21.43
2023-05-21T19:58:47.217Z,21.39
2023-05-21T20:01:50.253Z,21.31
2023-05-21T20:04:57.475Z,21.26
2023-05-21T20:08:00.203Z,21.23
2023-05-21T20:11:03.459Z,21.17
2023-05-21T20:14:06.794Z,21.14
2023-05-21T20:17:10.375Z,21.07
2023-05-21T20:20:14.783Z,21.01
2023-05-21T20:23:17.848Z,20.96
2023-05-21T20:26:21.823Z,20.89
2023-05-21T20:29:24.648Z,20.82
2023-05-21T20:32:27.502Z,20.75
2023-05-21T20:35:31.945Z,20.70
2023-05-21T20:38:36.910Z,20.58
2023-05-21T20:41:39.656Z,20.59
2023-05-21T20:44:45.086Z,20.55
2023-05-21T20:47:50.080Z,20.46
2023-05-21T20:50:54.371Z,20.46
2023-05-21T20:53:57.226Z,20.39
2023-05-21T20:57:00.145Z,20.33
2023-05-21T21:00:05.448Z,20.30
2023-05-21T21:03:10.368Z,20.27
2023-05-21T21:06:14.694Z,20.17
2023-05-21T21:09:17.665Z,20.04
2023-05-21T21:12:25.295Z,19.89
2023-05-21T21:15:29.469Z,19.75
2023-05-21T21:18:32.197Z,19.70
2023-05-21T21:21:36.642Z,19.57
2023-05-21T21:24:39.407Z,19.49
2023-05-21T21:27:42.473Z,19.41
2023-05-21T21:30:45.812Z,19.40
2023-05-21T21:33:48.631Z,19.40
2023-05-21T21:36:52.888Z,19.37
2023-05-21T21:39:55.815Z,19.32
2023-05-21T21:42:59.436Z,19.26
2023-05-21T21:46:02.527Z,19.22
2023-05-21T21:49:05.502Z,19.22
2023-05-21T21:52:10.869Z,19.16
2023-05-21T21:55:13.709Z,19.11
2023-05-21T21:58:16.522Z,19.03
2023-05-21T22:01:19.769Z,19.00
2023-05-21T22:04:22.662Z,18.89
2023-05-21T22:07:28.901Z,18.91
2023-05-21T22:10:33.493Z,18.89
2023-05-21T22:13:36.680Z,18.87
2023-05-21T22:16:41.579Z,18.79
2023-05-21T22:19:44.505Z,18.74
2023-05-21T22:22:48.783Z,18.60
2023-05-21T22:25:51.714Z,18.55
2023-05-21T22:28:54.503Z,18.46
2023-05-21T22:31:57.412Z,18.41
2023-05-21T22:35:00.200Z,18.35
2023-05-21T22:38:04.320Z,18.24
2023-05-21T22:41:08.500Z,18.24
2023-05-21T22:44:11.284Z,18.22
2023-05-21T22:47:14.092Z,18.23
2023-05-21T22:50:18.064Z,18.16
2023-05-21T22:53:23.343Z,18.11
2023-05-21T22:56:26.335Z,18.11
2023-05-21T22:59:29.620Z,18.05
2023-05-21T23:02:32.491Z,18.10
2023-05-21T23:05:35.262Z,18.10
2023-05-21T23:08:39.571Z,18.03
2023-05-21T23:11:42.351Z,17.92
2023-05-21T23:14:45.072Z,17.89
2023-05-21T23:17:47.824Z,17.88
2023-05-21T23:20:50.953Z,17.86
2023-05-21T23:23:55.131Z,17.87
2023-05-21T23:27:02.778Z,17.81
2023-05-21T23:30:06.279Z,17.78
2023-05-21T23:33:09.879Z,17.73
2023-05-21T23:36:12.717Z,17.71
2023-05-21T23:39:16.859Z,17.66
2023-05-21T23:42:19.866Z,17.60
2023-05-21T23:45:22.702Z,17.57
2023-05-21T23:48:25.692Z,17.55
2023-05-21T23:51:28.565Z,17.52
2023-05-21T23:54:32.724Z,17.51
2023-05-21T23:57:35.472Z,17.44
